createdAt,value
2023-01-12T00:00:06.409Z,6.68
2023-01-12T00:03:05.029Z,11.32
2023-01-12T00:05:37.509Z,12.98
2023-01-12T00:08:10.422Z,6.72
2023-01-12T00:10:43.164Z,9.90
2023-01-12T00:13:16.099Z,9.05
2023-01-12T00:16:07.011Z,6.93
2023-01-12T00:18:39.919Z,11.95
2023-01-12T00:21:12.485Z,6.95
2023-01-12T00:23:45.652Z,6.78
2023-01-12T00:26:18.201Z,6.55
2023-01-12T00:28:51.041Z,6.13
2023-01-12T00:31:23.696Z,11.45
2023-01-12T00:33:56.621Z,5.25
2023-01-12T00:36:29.139Z,6.05
2023-01-12T00:39:02.344Z,7.40
2023-01-12T00:41:55.574Z,4.43
2023-01-12T00:44:47.253Z,6.28
2023-01-12T00:47:19.854Z,11.13
2023-01-12T00:49:53.532Z,6.00
2023-01-12T00:52:31.160Z,3.13
2023-01-12T00:55:04.829Z,6.07
2023-01-12T00:57:37.365Z,6.35
2023-01-12T01:00:10.656Z,7.05
2023-01-12T01:02:43.787Z,8.50
2023-01-12T01:05:18.139Z,11.25
2023-01-12T01:07:50.669Z,3.55
2023-01-12T01:10:23.587Z,11.55
2023-01-12T01:12:56.140Z,6.68
2023-01-12T01:15:29.149Z,4.72
2023-01-12T01:18:01.639Z,5.55
2023-01-12T01:20:36.948Z,9.07
2023-01-12T01:23:09.446Z,6.40
2023-01-12T01:25:42.365Z,5.75
2023-01-12T01:28:15.466Z,5.82
2023-01-12T01:30:48.878Z,6.13
2023-01-12T01:33:21.401Z,8.20
2023-01-12T01:35:54.357Z,4.55
2023-01-12T01:38:26.831Z,4.68
2023-01-12T01:40:59.882Z,8.60
2023-01-12T01:44:07.914Z,5.30
2023-01-12T01:46:53.399Z,4.78
2023-01-12T01:49:29.008Z,5.18
2023-01-12T01:52:12.160Z,4.53
2023-01-12T01:54:56.776Z,7.82
2023-01-12T01:57:33.722Z,6.60
2023-01-12T02:00:06.630Z,6.53
2023-01-12T02:02:42.141Z,7.45
2023-01-12T02:05:19.015Z,7.38
2023-01-12T02:07:52.435Z,3.17
2023-01-12T02:10:25.753Z,3.95
2023-01-12T02:13:17.576Z,6.55
2023-01-12T02:16:16.995Z,6.68
2023-01-12T02:18:52.765Z,6.28
2023-01-12T02:21:43.767Z,5.13
2023-01-12T02:24:16.685Z,5.03
2023-01-12T02:26:49.168Z,4.03
2023-01-12T02:29:28.260Z,8.88
2023-01-12T02:32:19.297Z,3.55
2023-01-12T02:34:58.525Z,4.05
2023-01-12T02:37:49.839Z,6.78
2023-01-12T02:40:31.973Z,5.75
2023-01-12T02:45:50.369Z,4.82
2023-01-12T02:48:28.606Z,6.70
2023-01-12T02:51:04.648Z,5.53
2023-01-12T02:53:45.216Z,4.93
2023-01-12T02:56:32.071Z,5.43
2023-01-12T02:59:07.865Z,3.85
2023-01-12T03:01:41.498Z,3.75
2023-01-12T03:04:15.941Z,5.32
2023-01-12T03:06:51.885Z,5.88
2023-01-12T03:09:27.299Z,3.63
2023-01-12T03:12:06.314Z,6.47
2023-01-12T03:14:40.243Z,6.10
2023-01-12T03:17:20.506Z,4.95
2023-01-12T03:19:55.012Z,8.88
2023-01-12T03:22:28.133Z,9.52
2023-01-12T03:25:02.658Z,5.38
2023-01-12T03:27:39.435Z,6.00
2023-01-12T03:30:26.746Z,4.20
2023-01-12T03:32:59.674Z,4.13
2023-01-12T03:35:34.315Z,5.15
2023-01-12T03:38:17.250Z,4.43
2023-01-12T03:40:53.538Z,8.57
2023-01-12T03:43:32.947Z,6.45
2023-01-12T03:46:08.573Z,6.97
2023-01-12T03:48:44.558Z,3.42
2023-01-12T03:51:20.714Z,6.72
2023-01-12T03:53:55.114Z,5.78
2023-01-12T03:56:29.882Z,5.78
2023-01-12T03:59:03.657Z,4.35
2023-01-12T04:01:36.463Z,5.03
2023-01-12T04:04:09.513Z,8.68
2023-01-12T04:06:42.002Z,7.60
2023-01-12T04:09:14.958Z,5.95
2023-01-12T04:12:07.685Z,7.55
2023-01-12T04:14:41.731Z,6.80
2023-01-12T04:17:14.947Z,6.85
2023-01-12T04:19:49.093Z,14.32
2023-01-12T04:22:40.309Z,13.55
2023-01-12T04:25:14.887Z,19.92
2023-01-12T04:27:48.597Z,11.45
2023-01-12T04:30:23.831Z,14.18
2023-01-12T04:32:56.712Z,23.27
2023-01-12T04:35:29.723Z,50.20
2023-01-12T04:38:05.943Z,38.95
2023-01-12T04:40:38.935Z,79.28
2023-01-12T04:43:12.352Z,34.42
2023-01-12T04:45:45.413Z,13.85
2023-01-12T04:48:19.765Z,16.40
2023-01-12T04:50:52.946Z,12.10
2023-01-12T04:53:26.525Z,11.93
2023-01-12T04:56:02.999Z,16.10
2023-01-12T04:58:35.785Z,11.15
2023-01-12T05:01:12.639Z,12.60
2023-01-12T05:03:45.633Z,12.13
2023-01-12T05:06:18.628Z,11.13
2023-01-12T05:09:09.756Z,10.63
2023-01-12T05:11:42.686Z,6.95
2023-01-12T05:14:15.167Z,7.90
2023-01-12T05:16:48.055Z,7.15
2023-01-12T05:19:20.842Z,8.60
2023-01-12T05:21:53.704Z,8.10
2023-01-12T05:24:26.314Z,10.98
2023-01-12T05:27:00.881Z,8.10
2023-01-12T05:29:33.547Z,7.03
2023-01-12T05:32:06.485Z,9.85
2023-01-12T05:34:39.139Z,7.45
2023-01-12T05:37:12.014Z,12.98
2023-01-12T05:39:44.575Z,5.22
2023-01-12T05:42:36.045Z,5.72
2023-01-12T05:45:09.107Z,6.57
2023-01-12T05:47:41.997Z,9.93
2023-01-12T05:50:14.613Z,10.68
2023-01-12T05:52:47.515Z,12.38
2023-01-12T05:55:20.192Z,7.57
2023-01-12T05:57:53.368Z,5.07
2023-01-12T06:00:26.099Z,4.30
2023-01-12T06:02:58.950Z,4.68
2023-01-12T06:05:31.639Z,9.75
2023-01-12T06:08:04.599Z,6.85
2023-01-12T06:10:39.588Z,12.40
2023-01-12T06:13:30.921Z,9.27
2023-01-12T06:16:09.514Z,8.27
2023-01-12T06:18:42.617Z,7.90
2023-01-12T06:21:15.413Z,9.18
2023-01-12T06:23:52.242Z,6.40
2023-01-12T06:26:24.815Z,10.70
2023-01-12T06:28:57.873Z,8.45
2023-01-12T06:31:31.214Z,8.27
2023-01-12T06:34:04.125Z,10.68
2023-01-12T06:36:36.877Z,11.48
2023-01-12T06:39:11.624Z,16.05
2023-01-12T06:42:02.461Z,12.82
2023-01-12T06:44:35.363Z,6.65
2023-01-12T06:47:07.913Z,11.98
2023-01-12T06:49:40.984Z,13.88
2023-01-12T06:52:13.583Z,10.80
2023-01-12T06:54:46.835Z,14.02
2023-01-12T06:57:19.606Z,7.35
2023-01-12T06:59:52.587Z,6.93
2023-01-12T07:02:25.079Z,5.45
2023-01-12T07:04:58.036Z,6.10
2023-01-12T07:07:30.592Z,8.40
2023-01-12T07:10:04.388Z,6.43
2023-01-12T07:12:36.860Z,9.32
2023-01-12T07:15:09.972Z,8.43
2023-01-12T07:17:42.476Z,8.10
2023-01-12T07:20:15.568Z,10.52
2023-01-12T07:22:48.195Z,9.15
2023-01-12T07:25:21.490Z,8.02
2023-01-12T07:27:58.165Z,9.63
2023-01-12T07:30:31.091Z,8.00
2023-01-12T07:33:07.712Z,11.00
2023-01-12T07:35:41.138Z,17.65
2023-01-12T07:38:13.843Z,16.77
2023-01-12T07:40:46.834Z,21.23
2023-01-12T07:43:19.597Z,41.90
2023-01-12T07:45:52.660Z,51.55
2023-01-12T07:48:26.983Z,43.33
2023-01-12T07:50:59.983Z,47.63
2023-01-12T07:53:32.556Z,29.15
2023-01-12T07:56:05.573Z,15.82
2023-01-12T07:58:38.097Z,13.02
2023-01-12T08:01:11.110Z,8.75
2023-01-12T08:03:43.814Z,22.85
2023-01-12T08:06:16.760Z,16.15
2023-01-12T08:08:49.374Z,9.85
2023-01-12T08:11:23.324Z,8.75
2023-01-12T08:13:57.252Z,8.25
2023-01-12T08:16:33.381Z,7.32
2023-01-12T08:19:10.143Z,9.15
2023-01-12T08:21:46.393Z,8.48
2023-01-12T08:24:22.487Z,7.80
2023-01-12T08:26:57.705Z,7.57
2023-01-12T08:29:34.059Z,7.50
2023-01-12T08:34:42.739Z,5.72
2023-01-12T08:37:16.815Z,7.15
2023-01-12T08:39:51.692Z,11.90
2023-01-12T08:42:27.987Z,8.35
2023-01-12T08:45:01.414Z,6.20
2023-01-12T08:47:34.813Z,5.50
2023-01-12T08:50:09.168Z,5.38
2023-01-12T08:52:42.005Z,10.13
2023-01-12T08:55:14.552Z,6.38
2023-01-12T08:57:47.661Z,7.03
2023-01-12T09:00:20.539Z,14.10
2023-01-12T09:02:53.419Z,6.38
2023-01-12T09:05:26.947Z,3.55
2023-01-12T09:08:00.329Z,4.05
2023-01-12T09:10:33.023Z,4.28
2023-01-12T09:13:05.950Z,5.72
2023-01-12T09:15:38.455Z,3.17
2023-01-12T09:18:11.979Z,5.47
2023-01-12T09:20:44.669Z,7.88
2023-01-12T09:23:17.532Z,4.30
2023-01-12T09:25:50.091Z,5.10
2023-01-12T09:28:23.225Z,9.30
2023-01-12T09:30:55.955Z,5.65
2023-01-12T09:33:29.693Z,7.85
2023-01-12T09:36:25.728Z,11.85
2023-01-12T09:38:58.844Z,4.00
2023-01-12T09:41:52.436Z,3.75
2023-01-12T09:44:57.019Z,4.30
2023-01-12T09:47:35.761Z,9.93
2023-01-12T09:50:21.862Z,11.52
2023-01-12T09:53:01.245Z,9.02
2023-01-12T09:55:52.954Z,4.43
2023-01-12T09:58:28.238Z,4.85
2023-01-12T10:01:02.680Z,5.72
2023-01-12T10:03:39.061Z,4.57
2023-01-12T10:06:19.017Z,5.15
2023-01-12T10:08:52.615Z,5.28
2023-01-12T10:11:37.795Z,4.63
2023-01-12T10:14:10.916Z,10.73
2023-01-12T10:16:56.047Z,3.97
2023-01-12T10:19:31.545Z,5.45
2023-01-12T10:22:37.916Z,5.68
2023-01-12T10:25:17.078Z,6.45
2023-01-12T10:27:51.557Z,5.65
2023-01-12T10:30:42.913Z,8.40
2023-01-12T10:33:18.608Z,8.68
2023-01-12T10:36:06.252Z,6.53
2023-01-12T10:38:40.126Z,9.30
2023-01-12T10:41:17.347Z,3.80
2023-01-12T10:43:59.051Z,8.65
2023-01-12T10:46:32.820Z,5.78
2023-01-12T10:49:19.605Z,6.82
2023-01-12T10:51:56.814Z,5.05
2023-01-12T10:54:34.128Z,6.28
2023-01-12T10:57:14.204Z,4.68
2023-01-12T10:59:51.713Z,6.50
2023-01-12T11:02:29.323Z,7.45
2023-01-12T11:05:02.530Z,1.80
2023-01-12T11:07:48.337Z,3.35
2023-01-12T11:10:27.303Z,11.15
2023-01-12T11:13:01.070Z,2.95
2023-01-12T11:15:39.286Z,5.47
2023-01-12T11:18:29.834Z,4.55
2023-01-12T11:21:16.325Z,2.65
2023-01-12T11:23:48.829Z,1.02
2023-01-12T11:26:24.213Z,3.83
2023-01-12T11:28:59.607Z,3.42
2023-01-12T11:31:35.635Z,2.30
2023-01-12T11:34:20.033Z,2.45
2023-01-12T11:37:03.449Z,1.40
2023-01-12T11:39:36.118Z,4.15
2023-01-12T11:42:31.169Z,2.75
2023-01-12T11:45:03.783Z,3.20
2023-01-12T11:47:41.759Z,21.67
2023-01-12T11:50:26.478Z,5.00
2023-01-12T11:52:59.582Z,0.65
2023-01-12T11:55:49.312Z,2.75
2023-01-12T11:58:28.323Z,2.00
2023-01-12T12:01:19.573Z,3.50
2023-01-12T12:03:57.728Z,1.58
2023-01-12T12:06:33.044Z,3.17
2023-01-12T12:09:15.236Z,2.08
2023-01-12T12:11:54.678Z,4.95
2023-01-12T12:14:46.586Z,4.55
2023-01-12T12:17:21.537Z,4.43
2023-01-12T12:19:57.348Z,1.05
2023-01-12T12:22:32.781Z,0.80
2023-01-12T12:25:05.624Z,1.63
2023-01-12T12:27:59.420Z,1.58
2023-01-12T12:30:50.585Z,0.90
2023-01-12T12:33:38.968Z,0.70
2023-01-12T12:36:11.797Z,2.63
2023-01-12T12:39:02.797Z,0.98
2023-01-12T12:42:04.892Z,1.17
2023-01-12T12:45:03.172Z,5.35
2023-01-12T12:50:19.139Z,4.50
2023-01-12T12:53:03.387Z,1.52
2023-01-12T12:55:36.159Z,2.53
2023-01-12T12:58:21.069Z,0.75
2023-01-12T13:00:54.856Z,0.98
2023-01-12T13:03:39.928Z,2.63
2023-01-12T13:06:21.410Z,5.43
2023-01-12T13:08:58.883Z,20.85
2023-01-12T13:11:54.127Z,4.45
2023-01-12T13:14:28.686Z,9.07
2023-01-12T13:17:01.175Z,8.43
2023-01-12T13:19:37.343Z,3.95
2023-01-12T13:22:27.542Z,3.72
2023-01-12T13:25:01.565Z,4.28
2023-01-12T13:27:54.550Z,7.47
2023-01-12T13:30:30.447Z,4.30
2023-01-12T13:33:12.485Z,10.13
2023-01-12T13:35:46.172Z,8.25
2023-01-12T13:38:36.668Z,8.48
2023-01-12T13:41:15.780Z,10.57
2023-01-12T13:43:48.337Z,23.85
2023-01-12T13:46:22.757Z,8.55
2023-01-12T13:48:56.078Z,6.47
2023-01-12T13:51:29.009Z,12.90
2023-01-12T13:54:01.604Z,13.32
2023-01-12T13:56:34.734Z,14.07
2023-01-12T13:59:15.864Z,11.43
2023-01-12T14:01:49.201Z,22.80
2023-01-12T14:04:45.429Z,19.73
2023-01-12T14:07:41.105Z,18.70
2023-01-12T14:10:25.880Z,7.72
2023-01-12T14:13:10.650Z,14.40
2023-01-12T14:16:02.747Z,12.43
2023-01-12T14:18:45.814Z,7.30
2023-01-12T14:21:21.258Z,3.35
2023-01-12T14:23:54.583Z,5.88
2023-01-12T14:26:27.604Z,6.13
2023-01-12T14:29:00.873Z,4.72
2023-01-12T14:31:37.348Z,3.25
2023-01-12T14:34:29.055Z,9.05
2023-01-12T14:37:03.311Z,8.20
2023-01-12T14:39:41.732Z,6.13
2023-01-12T14:42:36.305Z,6.47
2023-01-12T14:45:48.008Z,8.93
2023-01-12T14:48:23.766Z,3.20
2023-01-12T14:51:04.630Z,10.48
2023-01-12T14:53:41.635Z,6.57
2023-01-12T14:56:17.579Z,10.60
2023-01-12T14:58:50.303Z,12.13
2023-01-12T15:01:37.802Z,12.25
2023-01-12T15:04:18.838Z,12.32
2023-01-12T15:07:05.718Z,13.50
2023-01-12T15:09:52.485Z,8.13
2023-01-12T15:12:31.225Z,18.05
2023-01-12T15:15:15.995Z,19.15
2023-01-12T15:18:08.541Z,17.17
2023-01-12T15:21:03.643Z,14.32
2023-01-12T15:23:55.534Z,12.60
2023-01-12T15:26:28.049Z,10.93
2023-01-12T15:29:01.060Z,19.20
2023-01-12T15:31:34.911Z,16.05
2023-01-12T15:34:10.987Z,14.77
2023-01-12T15:36:43.497Z,13.38
2023-01-12T15:39:16.476Z,9.63
2023-01-12T15:42:07.327Z,10.60
2023-01-12T15:44:40.269Z,16.60
2023-01-12T15:47:13.998Z,12.98
2023-01-12T15:49:48.946Z,10.90
2023-01-12T15:52:23.246Z,11.95
2023-01-12T15:54:56.254Z,11.40
2023-01-12T15:57:28.699Z,11.60
2023-01-12T16:00:01.745Z,17.75
2023-01-12T16:02:41.728Z,12.45
2023-01-12T16:05:15.770Z,29.42
2023-01-12T16:07:48.925Z,10.65
2023-01-12T16:10:21.942Z,18.17
2023-01-12T16:12:54.448Z,9.63
2023-01-12T16:15:30.381Z,10.80
2023-01-12T16:18:03.008Z,11.85
2023-01-12T16:20:36.040Z,10.52
2023-01-12T16:23:08.563Z,6.93
2023-01-12T16:25:41.406Z,7.57
2023-01-12T16:28:13.951Z,15.20
2023-01-12T16:30:47.334Z,8.88
2023-01-12T16:33:19.886Z,25.27
2023-01-12T16:35:55.179Z,27.95
2023-01-12T16:38:28.031Z,45.83
2023-01-12T16:41:07.601Z,12.52
2023-01-12T16:43:48.029Z,28.67
2023-01-12T16:46:21.679Z,24.73
2023-01-12T16:48:56.121Z,22.38
2023-01-12T16:51:29.014Z,46.88
2023-01-12T16:54:03.127Z,31.10
2023-01-12T16:56:36.013Z,13.70
2023-01-12T16:59:09.629Z,12.90
2023-01-12T17:01:43.005Z,7.18
2023-01-12T17:04:16.766Z,6.53
2023-01-12T17:06:49.703Z,5.93
2023-01-12T17:09:22.361Z,12.68
2023-01-12T17:11:55.382Z,10.90
2023-01-12T17:14:29.623Z,23.27
2023-01-12T17:17:04.332Z,12.13
2023-01-12T17:19:37.988Z,9.32
2023-01-12T17:22:12.137Z,7.55
2023-01-12T17:24:44.902Z,13.90
2023-01-12T17:27:20.072Z,10.07
2023-01-12T17:29:52.653Z,11.60
2023-01-12T17:32:25.603Z,11.80
2023-01-12T17:34:58.191Z,9.32
2023-01-12T17:37:31.134Z,5.10
2023-01-12T17:40:04.234Z,14.18
2023-01-12T17:42:55.427Z,11.80
2023-01-12T17:45:28.504Z,15.35
2023-01-12T17:48:01.633Z,8.52
2023-01-12T17:50:34.809Z,7.25
2023-01-12T17:53:10.634Z,7.55
2023-01-12T17:55:48.180Z,8.05
2023-01-12T17:58:22.343Z,5.57
2023-01-12T18:00:54.952Z,16.80
2023-01-12T18:03:28.051Z,13.32
2023-01-12T18:06:09.033Z,10.95
2023-01-12T18:08:48.435Z,12.98
2023-01-12T18:11:21.111Z,12.23
2023-01-12T18:13:54.342Z,24.67
2023-01-12T18:16:27.294Z,16.05
2023-01-12T18:19:01.792Z,11.40
2023-01-12T18:21:34.748Z,13.20
2023-01-12T18:24:07.683Z,7.20
2023-01-12T18:26:40.726Z,13.25
2023-01-12T18:29:13.620Z,14.13
2023-01-12T18:31:47.607Z,14.95
2023-01-12T18:34:20.555Z,9.80
2023-01-12T18:36:53.071Z,10.98
2023-01-12T18:39:26.144Z,13.45
2023-01-12T18:42:21.432Z,13.93
2023-01-12T18:44:54.363Z,14.05
2023-01-12T18:47:45.362Z,13.48
2023-01-12T18:50:36.694Z,13.85
2023-01-12T18:53:26.414Z,16.60
2023-01-12T18:56:02.043Z,17.70
2023-01-12T18:58:35.183Z,16.55
2023-01-12T19:01:08.135Z,9.65
2023-01-12T19:03:41.743Z,7.18
2023-01-12T19:06:34.963Z,7.30
2023-01-12T19:09:26.122Z,24.17
2023-01-12T19:11:59.365Z,9.85
2023-01-12T19:14:50.104Z,41.85
2023-01-12T19:17:30.024Z,32.88
2023-01-12T19:20:07.577Z,16.23
2023-01-12T19:22:58.740Z,11.80
2023-01-12T19:25:49.764Z,13.02
2023-01-12T19:28:38.501Z,21.10
2023-01-12T19:31:12.010Z,22.75
2023-01-12T19:33:45.010Z,28.10
2023-01-12T19:36:17.576Z,23.10
2023-01-12T19:38:50.949Z,14.88
2023-01-12T19:41:41.799Z,12.65
2023-01-12T19:44:14.747Z,12.90
2023-01-12T19:46:47.839Z,9.35
2023-01-12T19:49:20.799Z,9.70
2023-01-12T19:51:53.257Z,7.72
2023-01-12T19:54:26.252Z,9.98
2023-01-12T19:56:58.780Z,8.05
2023-01-12T19:59:32.299Z,10.27
2023-01-12T20:02:06.216Z,6.88
2023-01-12T20:04:39.361Z,4.13
2023-01-12T20:07:12.535Z,4.63
2023-01-12T20:09:47.371Z,8.50
2023-01-12T20:12:20.064Z,11.55
2023-01-12T20:14:53.617Z,7.43
2023-01-12T20:17:26.292Z,13.27
2023-01-12T20:19:59.273Z,10.45
2023-01-12T20:22:31.751Z,14.15
2023-01-12T20:25:05.529Z,14.38
2023-01-12T20:27:38.598Z,6.00
2023-01-12T20:30:12.018Z,6.00
2023-01-12T20:32:45.933Z,8.98
2023-01-12T20:35:23.649Z,9.27
2023-01-12T20:37:56.453Z,10.93
2023-01-12T20:40:29.576Z,10.27
2023-01-12T20:43:02.107Z,8.18
2023-01-12T20:45:34.995Z,8.25
2023-01-12T20:48:07.612Z,4.65
2023-01-12T20:50:47.221Z,6.75
2023-01-12T20:53:20.180Z,7.82
2023-01-12T20:55:54.005Z,6.68
2023-01-12T20:58:26.814Z,6.63
2023-01-12T21:00:59.991Z,10.60
2023-01-12T21:03:32.651Z,12.45
2023-01-12T21:06:09.624Z,12.38
2023-01-12T21:08:45.514Z,7.35
2023-01-12T21:11:19.557Z,9.35
2023-01-12T21:13:52.204Z,11.25
2023-01-12T21:16:25.201Z,10.32
2023-01-12T21:18:57.779Z,11.25
2023-01-12T21:21:30.693Z,9.13
2023-01-12T21:24:03.232Z,3.72
2023-01-12T21:26:36.136Z,6.00
2023-01-12T21:29:08.884Z,7.55
2023-01-12T21:31:41.815Z,4.95
2023-01-12T21:34:14.433Z,7.40
2023-01-12T21:36:47.392Z,3.85
2023-01-12T21:39:19.986Z,5.47
2023-01-12T21:42:11.348Z,2.65
2023-01-12T21:44:43.946Z,6.03
2023-01-12T21:47:16.937Z,4.88
2023-01-12T21:49:49.853Z,14.77
2023-01-12T21:52:22.963Z,18.10
2023-01-12T21:54:55.518Z,15.30
2023-01-12T21:57:28.611Z,4.43
2023-01-12T22:00:01.226Z,5.47
2023-01-12T22:02:44.654Z,6.57
2023-01-12T22:05:18.581Z,3.58
2023-01-12T22:07:52.015Z,19.02
2023-01-12T22:10:30.767Z,10.18
2023-01-12T22:13:06.221Z,8.13
2023-01-12T22:15:38.740Z,5.65
2023-01-12T22:18:11.646Z,4.85
2023-01-12T22:20:45.059Z,6.57
2023-01-12T22:23:18.174Z,6.00
2023-01-12T22:25:50.852Z,2.85
2023-01-12T22:28:23.800Z,4.47
2023-01-12T22:30:56.559Z,8.13
2023-01-12T22:33:29.598Z,5.65
2023-01-12T22:36:02.668Z,3.35
2023-01-12T22:38:35.765Z,5.93
2023-01-12T22:41:09.988Z,4.00
2023-01-12T22:43:42.898Z,5.38
2023-01-12T22:46:19.553Z,6.32
2023-01-12T22:48:56.308Z,3.70
2023-01-12T22:51:30.033Z,4.93
2023-01-12T22:54:02.966Z,6.32
2023-01-12T22:56:36.036Z,3.72
2023-01-12T22:59:10.262Z,4.32
2023-01-12T23:01:42.829Z,3.20
2023-01-12T23:04:15.820Z,3.67
2023-01-12T23:06:48.402Z,4.22
2023-01-12T23:09:21.409Z,5.15
2023-01-12T23:11:53.916Z,7.70
2023-01-12T23:14:27.211Z,3.80
2023-01-12T23:16:59.717Z,10.23
2023-01-12T23:19:32.676Z,4.80
2023-01-12T23:22:05.799Z,5.15
2023-01-12T23:24:39.498Z,4.82
2023-01-12T23:27:12.079Z,3.60
2023-01-12T23:29:45.045Z,4.40
2023-01-12T23:32:17.659Z,9.60
2023-01-12T23:34:50.555Z,5.28
2023-01-12T23:37:23.475Z,5.40
2023-01-12T23:39:56.589Z,6.10
2023-01-12T23:42:30.685Z,6.43
2023-01-12T23:45:03.725Z,6.90
2023-01-12T23:47:36.322Z,2.03
2023-01-12T23:50:10.807Z,3.15
2023-01-12T23:52:43.628Z,4.25
2023-01-12T23:55:16.562Z,4.00
2023-01-12T23:57:49.078Z,1.92
